Tiempo atmosférico en la estación meteorológica de Lliria, València/Valencia (180 m.)



Fecha
DESCASC
Temp. máxima en grados centígrados (hora)
DESCASC
Temp. mínima en grados centígrados (hora)
DESCASC
Temp. media en grados centígrados
DESCASC
Racha de viento máxima en m/sg (hora)
DESCASC
Velocidad máxima media en intervalos de 10 minutos(hora)
DESCASC
Precipitaciones diarias en mm
DESCASC
Precipitaciones de 00:00 a 06:00 en mm
DESCASC
Precipitaciones de 06:00 a 12:00 en mm
DESCASC
Precipitaciones de 12:00 a 18:00 en mm
DESCASC
Precipitaciones de 18:00 a 24:00 en mm
DESCASC
11-12-2019 19.4 (15:10) 3.6 (07:30) 11.5 13.61 (15:30) 8.33 (15:30) 0 0 0 0 0
08-12-2019 19.8 (14:40) 5 (00:00) 12.4 5.56 (06:50) 3.61 (04:20) 0.2 0 0 0 0.2
07-12-2019 18.3 (14:10) 6 (00:00) 12.1 5 (09:10) 3.33 (09:10) 0 0 0 0 0
06-12-2019 15.1 (13:00) 8.6 (00:00) 11.9 3.61 (13:50) 2.5 (14:00) 0.2 0.2 0 0 0
05-12-2019 12.8 (13:10) 9.3 (00:00) 11.1 6.11 (01:50) 3.61 (01:50) 15.8 0.8 10.6 4.2 0.2
04-12-2019 14.9 (13:00) 9.9 (09:30) 12.4 12.5 (08:10) 7.5 (08:20) 13.6 1.8 6.2 1.2 4.4
03-12-2019 10.7 (16:10) 8 (00:00) 9.3 6.39 (23:10) 3.33 (23:10) 5.4 0.2 0.2 0.4 4.6
02-12-2019 13.3 (13:40) 7.7 (00:00) 10.5 9.17 (13:30) 5 (13:30) 1.8 0 0.8 1 0
01-12-2019 17.9 (15:30) 8 (00:00) 12.9 10.56 (11:20) 6.39 (13:10) 0 0 0 0 0
30-11-2019 22.6 (15:30) 9 (00:00) 15.8 10.28 (15:20) 5.83 (23:59) 0 0 0 0 0
29-11-2019 23 (15:00) 14.1 (00:00) 18.6 12.5 (07:10) 7.5 (09:30) 0 0 0 0 0
28-11-2019 18.3 (13:30) 8.9 (08:10) 13.6 11.11 (11:30) 7.22 (11:00) 0 0 0 0 0
27-11-2019 20.2 (13:20) 13.9 (00:00) 17.1 15.28 (14:10) 8.89 (14:10) 0 0 0 0 0
26-11-2019 22.3 (15:30) 9.2 (00:00) 15.7 12.5 (14:00) 7.78 (14:00) 0 0 0 0 0
25-11-2019 21.8 (14:50) 11.7 (23:10) 16.7 12.78 (06:00) 6.94 (00:20) 0 0 0 0 0
24-11-2019 18.3 (15:20) 10.3 (00:00) 14.3 12.78 (23:50) 7.5 (23:50) 0 0 0 0 0
23-11-2019 16.5 (14:50) 9.9 (00:00) 13.2 16.11 (15:10) 8.89 (14:20) 0.2 0.2 0 0 0
22-11-2019 15.7 (13:00) 6.8 (00:00) 11.3 6.39 (23:59) 3.33 (04:20) 2.6 0 0 1.8 0.8
21-11-2019 16.3 (14:50) 3.8 (00:00) 10 6.67 (13:30) 3.89 (13:50) 0 0 0 0 0
20-11-2019 16.6 (14:20) 3.8 (08:00) 10.2 6.94 (15:10) 4.17 (23:00) 0 0 0 0 0
19-11-2019 17 (15:40) -0.4 (00:00) 8.3 6.11 (11:50) 3.06 (23:20) 0 0 0 0 0
18-11-2019 16.3 (12:10) 3 (00:00) 9.6 12.22 (13:30) 7.22 (13:20) 0 0 0 0 0
17-11-2019 16.4 (15:40) 2.5 (00:00) 9.4 14.72 (13:10) 8.33 (11:50) 0 0 0 0 0
16-11-2019 16.6 (15:30) 1.6 (00:00) 9.1 7.5 (14:30) 4.17 (16:00) 0 0 0 0 0
15-11-2019 14.8 (14:00) 3.7 (00:00) 9.3 13.61 (13:40) 6.67 (13:00) 0 0 0 0 0

Gráficas

Temp. máximas Temp. mínimas Temp. medias Precipitaciones Rachas de viento máximas Velocidades máximas media en intervalos de 10 minutos

Datos horarios

Fecha y hora oficial Temperatura (ºC) Velocidad del viento (km/h) Dirección del viento Racha (km/h) Dirección de racha Precipitación (mm) Presión (hPa) Tendencia (hPa) Humedad (%)
2019-12-14 23:00:00 12.3 13 Noroeste 32 Oeste 0 -- -- 57
2019-12-14 22:00:00 12.6 17 Oeste 40 Oeste 0 -- -- 57
2019-12-14 21:00:00 13 24 Oeste 40 Oeste 0 -- -- 55
2019-12-14 20:00:00 13.4 22 Oeste 47 Oeste 0 -- -- 55
2019-12-14 19:00:00 14.1 31 Oeste 49 Oeste 0 -- -- 53
2019-12-14 18:00:00 14.7 27 Oeste 42 Oeste 0 -- -- 53
2019-12-14 17:00:00 15.7 24 Oeste 42 Oeste 0 -- -- 51
2019-12-14 16:00:00 15.9 24 Oeste 44 Oeste 0 -- -- 52
2019-12-14 15:00:00 16.9 24 Oeste 40 Oeste 0 -- -- 50
2019-12-14 14:00:00 17.8 27 Oeste 44 Oeste 0 -- -- 48
2019-12-14 13:00:00 18.4 23 Oeste 35 Oeste 0 -- -- 46
2019-12-14 12:00:00 17.9 21 Oeste 40 Oeste 0 -- -- 48
2019-12-14 11:00:00 16.7 19 Oeste 47 Oeste 0 -- -- 51
2019-12-14 10:00:00 15.7 22 Oeste 42 Oeste 0 -- -- 54
2019-12-14 09:00:00 14.6 18 Oeste 35 Oeste 0 -- -- 55
2019-12-14 08:00:00 13.9 19 Oeste 32 Noroeste 0 -- -- 57
2019-12-14 07:00:00 14.4 13 Noroeste 48 Oeste 0 -- -- 56
2019-12-14 06:00:00 14.7 18 Oeste 53 Oeste 0 -- -- 56
2019-12-14 05:00:00 15.1 29 Oeste 55 Noroeste 0 -- -- 56
2019-12-14 04:00:00 15 26 Oeste 57 Oeste 0 -- -- 57
2019-12-14 03:00:00 15 27 Oeste 47 Oeste 0 -- -- 57
2019-12-14 02:00:00 15.4 26 Oeste 41 Oeste 0 -- -- 57
2019-12-14 01:00:00 15.3 15 Oeste 40 Oeste 0 -- -- 57
2019-12-14 00:00:00 15.9 13 Oeste 28 Oeste 0 -- -- 55
2019-12-13 23:00:00 16.4 14 Oeste 35 Oeste 0 -- -- 55
2019-12-13 22:00:00 17.2 17 Oeste 36 Oeste 0 -- -- 55
2019-12-13 21:00:00 17.7 18 Oeste 49 Oeste 0 -- -- 55
2019-12-13 20:00:00 17.9 24 Oeste 48 Oeste 0 -- -- 54
2019-12-13 19:00:00 18 21 Oeste 43 Oeste 0 -- -- 54
2019-12-13 18:00:00 18.3 26 Oeste 53 Oeste 0 -- -- 53
2019-12-13 17:00:00 19.3 30 Oeste 59 Oeste 0 -- -- 50
2019-12-13 16:00:00 19.7 27 Oeste 57 Oeste 0 -- -- 48
2019-12-13 15:00:00 19.4 27 Oeste 66 Noroeste 0 -- -- 48
2019-12-13 14:00:00 19.1 37 Oeste 56 Oeste 0 -- -- 49
2019-12-13 13:00:00 18.1 35 Oeste 56 Oeste 0 -- -- 50
2019-12-13 12:00:00 18.1 26 Oeste 46 Noroeste 0 -- -- 52
2019-12-13 11:00:00 17.6 23 Oeste 44 Oeste 0 -- -- 53
2019-12-13 10:00:00 17.3 24 Oeste 45 Oeste 0 -- -- 55
2019-12-13 09:00:00 17 21 Oeste 48 Oeste 0 -- -- 58
2019-12-13 08:00:00 16.5 26 Oeste 44 Oeste 0 -- -- 63
2019-12-13 07:00:00 16.4 28 Oeste 47 Oeste 0 -- -- 63
2019-12-13 06:00:00 16.1 21 Oeste 43 Oeste 0 -- -- 63
2019-12-13 05:00:00 15.7 26 Oeste 47 Oeste 0 -- -- 64
2019-12-13 04:00:00 15.4 24 Oeste 44 Oeste 0 -- -- 63
2019-12-13 03:00:00 15.1 21 Oeste 46 Oeste 0 -- -- 63
2019-12-13 02:00:00 14.8 26 Oeste 48 Oeste 0 -- -- 63
2019-12-13 01:00:00 14.5 28 Oeste 60 Oeste 0 -- -- 62
2019-12-13 00:00:00 14.5 37 Oeste 63 Oeste 0 -- -- 60
2019-12-12 23:00:00 14 23 Oeste 57 Oeste 0 -- -- 60
2019-12-12 22:00:00 13.6 36 Oeste 65 Oeste 0 -- -- 60
2019-12-12 21:00:00 13.1 40 Oeste 64 Oeste 0 -- -- 60
2019-12-12 20:00:00 12.7 37 Oeste 64 Oeste 0 -- -- 59
2019-12-12 19:00:00 12.2 22 Noroeste 47 Noroeste 0 -- -- 60
2019-12-12 18:00:00 12.1 17 Oeste 46 Oeste 0 -- -- 59
2019-12-12 17:00:00 12.9 27 Oeste 53 Noroeste 0 -- -- 54
2019-12-12 16:00:00 14 26 Oeste 44 Oeste 0 -- -- 49
2019-12-12 15:00:00 13.6 23 Oeste 45 Oeste 0 -- -- 49
2019-12-12 14:00:00 14.2 20 Oeste 48 Oeste 0 -- -- 47
2019-12-12 13:00:00 14.1 23 Oeste 39 Oeste 0 -- -- 47
2019-12-12 12:00:00 13.6 19 Sudoeste 38 Sudoeste 0 -- -- 48
2019-12-12 11:00:00 11.4 18 Oeste 44 Noroeste 0 -- -- 53
2019-12-12 10:00:00 9.5 8 Sudoeste 25 Oeste 0 -- -- 58
2019-12-12 09:00:00 7.1 11 Oeste 19 Oeste 0 -- -- 67
2019-12-12 08:00:00 7.1 13 Noroeste 32 Oeste 0 -- -- 65
2019-12-12 07:00:00 7.8 19 Oeste 32 Oeste 0 -- -- 62
2019-12-12 06:00:00 7.9 17 Oeste 31 Noroeste 0 -- -- 62
2019-12-12 05:00:00 7.6 17 Noroeste 28 Noroeste 0 -- -- 65
2019-12-12 04:00:00 8 16 Oeste 31 Oeste 0 -- -- 63
2019-12-12 03:00:00 7.4 13 Noroeste 21 Noroeste 0 -- -- 67
2019-12-12 02:00:00 7.5 14 Noroeste 23 Noroeste 0 -- -- 67
2019-12-12 01:00:00 8 14 Noroeste 19 Noroeste 0 -- -- 64
2019-12-12 00:00:00 6 9 Noroeste 14 Noroeste 0 -- -- 66
2019-12-11 23:00:00 5 0 Calma 10 Norte 0 -- -- 76
2019-12-11 22:00:00 8 6 Norte 17 Norte 0 -- -- 61
2019-12-11 21:00:00 9.6 8 Norte 19 Oeste 0 -- -- 54
2019-12-11 20:00:00 11.4 6 Noroeste 15 Noroeste 0 -- -- 50
2019-12-11 19:00:00 12.8 6 Oeste 26 Oeste 0 -- -- 46
2019-12-11 18:00:00 14.4 10 Noroeste 39 Norte 0 -- -- 44
2019-12-11 17:00:00 17.2 19 Noroeste 34 Noroeste 0 -- -- 39
2019-12-11 16:00:00 18.7 16 Oeste 49 Noroeste 0 -- -- 45
2019-12-11 15:00:00 18.8 16 Noroeste 37 Noroeste 0 -- -- 42
2019-12-11 14:00:00 16.5 13 Oeste 27 Oeste 0 -- -- 39
2019-12-11 13:00:00 14.8 5 Sudoeste 25 Oeste 0 -- -- 42
2019-12-11 12:00:00 14.2 16 Oeste 35 Oeste 0 -- -- 41
2019-12-11 11:00:00 13.5 12 Oeste 22 Oeste 0 -- -- 40
2019-12-11 10:00:00 12.5 2 Nordeste 14 Noroeste 0 -- -- 42
2019-12-11 09:00:00 6.3 3 Oeste 16 Oeste 0 -- -- 63
2019-12-11 08:00:00 4.3 8 Noroeste 11 Noroeste 0 -- -- 70
2019-12-11 07:00:00 4.2 3 Noroeste 6 Noroeste 0 -- -- 73
2019-12-11 06:00:00 6.6 3 Noroeste 16 Noroeste 0 -- -- 60
2019-12-11 05:00:00 7.9 11 Noroeste 17 Noroeste 0 -- -- 55
2019-12-11 04:00:00 6.9 11 Noroeste 15 Noroeste 0 -- -- 56
2019-12-11 03:00:00 4.3 3 Norte 6 Norte 0 -- -- 75
2019-12-11 02:00:00 7.3 3 Norte 13 Noroeste 0 -- -- 59
2019-12-11 01:00:00 6.4 6 Noroeste 11 Noroeste 0 -- -- 62
2019-12-11 00:00:00 4.7 3 Norte 6 Noroeste 0 -- -- 74
2019-12-10 23:00:00 5.6 4 Noroeste 11 Noroeste 0 -- -- 75
2019-12-10 22:00:00 8.4 6 Noroeste 14 Noroeste 0 -- -- 57
2019-12-10 21:00:00 7.1 5 Noroeste 11 Noroeste 0 -- -- 75
2019-12-10 20:00:00 8.8 2 Noroeste 14 Noroeste 0 -- -- 75
2019-12-10 19:00:00 9.8 8 Noroeste 12 Noroeste 0 -- -- 72
2019-12-10 18:00:00 13.4 7 Norte 9 Norte 0 -- -- 59
2019-12-10 17:00:00 18 4 Este 13 Sudeste 0 -- -- 45
2019-12-10 16:00:00 19.3 10 Sudeste 19 Sudeste 0 -- -- 39
2019-12-10 15:00:00 21.1 10 Sudoeste 18 Sudoeste 0 -- -- 32
2019-12-10 14:00:00 20.6 3 Nordeste 10 Oeste 0 -- -- 31
2019-12-10 13:00:00 18.8 7 Noroeste 22 Oeste 0 -- -- 36
2019-12-10 12:00:00 16.8 14 Oeste 27 Oeste 0 -- -- 37
2019-12-10 11:00:00 14.7 15 Noroeste 44 Oeste 0 -- -- 42
2019-12-10 10:00:00 13.1 19 Oeste 33 Oeste 0 -- -- 45
2019-12-10 09:00:00 10.1 5 Este 23 Oeste 0 -- -- 54
2019-12-10 08:00:00 8.6 4 Nordeste 30 Oeste 0 -- -- 58
2019-12-10 07:00:00 8.7 17 Oeste 26 Noroeste 0 -- -- 60
2019-12-10 06:00:00 8.9 15 Noroeste 38 Noroeste 0 -- -- 59
2019-12-10 05:00:00 9.1 22 Noroeste 31 Noroeste 0 -- -- 59
2019-12-10 04:00:00 8.4 6 Sudoeste 21 Oeste 0 -- -- 63
2019-12-10 03:00:00 7.1 3 Sur 17 Este 0 -- -- 71
2019-12-10 02:00:00 6.3 4 Nordeste 18 Noroeste 0 -- -- 74
2019-12-10 01:00:00 5.3 6 Noroeste 12 Noroeste 0 -- -- 83
2019-12-10 00:00:00 6.8 4 Norte 12 Noroeste 0 -- -- 77
2019-12-09 23:00:00 7.1 3 Noroeste 10 Norte 0 -- -- 78
2019-12-09 22:00:00 7.8 4 Sudeste 12 Noroeste 0 -- -- 73
2019-12-09 21:00:00 8.6 4 Norte 8 Nordeste 0 -- -- 68
2019-12-09 20:00:00 9.7 4 Norte 6 Norte 0 -- -- 61
2019-12-09 19:00:00 11 3 Nordeste 13 Noroeste 0 -- -- 56
2019-12-09 18:00:00 12.9 2 Noroeste 21 Norte 0 -- -- 60
2019-12-09 17:00:00 17.3 12 Norte 21 Nordeste 0 -- -- 37
2019-12-09 16:00:00 20.6 5 Nordeste 12 Sudeste 0 -- -- 34
2019-12-09 15:00:00 20.4 5 Sur 15 Sur 0 -- -- 35
2019-12-09 14:00:00 20.3 14 Oeste 38 Oeste 0 -- -- 34
2019-12-09 13:00:00 18.9 21 Oeste 44 Noroeste 0 -- -- 36
2019-12-09 12:00:00 17.1 20 Noroeste 41 Oeste 0 -- -- 37
2019-12-09 11:00:00 15.6 27 Oeste 41 Noroeste 0 -- -- 42
2019-12-09 10:00:00 13.1 14 Noroeste 29 Noroeste 0 -- -- 52
2019-12-09 09:00:00 8.6 5 Noroeste 12 Noroeste 0 -- -- 71
2019-12-09 08:00:00 5.8 6 Oeste 14 Noroeste 0 -- -- 84
2019-12-09 07:00:00 6.1 4 Norte 10 Noroeste 0 -- -- 88
2019-12-09 06:00:00 7.3 4 Norte 12 Norte 0 -- -- 88
2019-12-09 05:00:00 9.7 3 Norte 27 Oeste 0 -- -- 81
2019-12-09 04:00:00 8.5 8 Norte 13 Noroeste 0 -- -- 91
2019-12-09 03:00:00 10.1 3 Norte 12 Norte 0 -- -- 87
2019-12-09 02:00:00 13.1 5 Norte 9 Noroeste 0 -- -- 77
2019-12-09 01:00:00 12.2 4 Norte 10 Noroeste 0 -- -- 86
2019-12-09 00:00:00 13.2 9 Noroeste 16 Noroeste 0.2 -- -- 80
2019-12-08 23:00:00 13.4 8 Noroeste 15 Noroeste 0 -- -- 75
2019-12-08 22:00:00 14 8 Norte 13 Noroeste 0 -- -- 66
2019-12-08 21:00:00 11 3 Norte 7 Norte 0 -- -- 84
2019-12-08 20:00:00 13.3 3 Noroeste 12 Noroeste 0 -- -- 75
2019-12-08 19:00:00 13.1 8 Noroeste 13 Noroeste 0 -- -- 75
2019-12-08 18:00:00 14.1 5 Noroeste 16 Noroeste 0 -- -- 70
2019-12-08 17:00:00 17 5 Noroeste 13 Noroeste 0 -- -- 60
2019-12-08 16:00:00 18.7 8 Noroeste 14 Oeste 0 -- -- 51
2019-12-08 15:00:00 19.8 6 Sur 13 Oeste 0 -- -- 48
2019-12-08 14:00:00 19.1 5 Oeste 16 Oeste 0 -- -- 47
2019-12-08 13:00:00 17.8 9 Oeste 16 Oeste 0 -- -- 52
2019-12-08 12:00:00 16.3 6 Sudoeste 13 Oeste 0 -- -- 51
2019-12-08 11:00:00 13.5 8 Oeste 15 Oeste 0 -- -- 61
2019-12-08 10:00:00 11.5 9 Oeste 17 Noroeste 0 -- -- 66
2019-12-08 09:00:00 8.9 9 Noroeste 20 Noroeste 0 -- -- 74
2019-12-08 08:00:00 7.6 9 Noroeste 17 Noroeste 0 -- -- 80
2019-12-08 07:00:00 7.9 9 Noroeste 20 Noroeste 0 -- -- 80
2019-12-08 06:00:00 7.5 10 Noroeste 17 Noroeste 0 -- -- 82
2019-12-08 05:00:00 7.3 12 Noroeste 17 Noroeste 0 -- -- 84
2019-12-08 04:00:00 6.9 10 Noroeste 16 Noroeste 0 -- -- 85
2019-12-08 03:00:00 5.6 8 Noroeste 10 Noroeste 0 -- -- 92
2019-12-08 02:00:00 5 0 Calma 3 Nordeste 0 -- -- 94
2019-12-08 01:00:00 6.6 4 Noroeste 11 Noroeste 0 -- -- 92
2019-12-08 00:00:00 7 4 Noroeste 8 Noroeste 0 -- -- 91
2019-12-07 23:00:00 7.9 2 Norte 10 Noroeste 0 -- -- 90
2019-12-07 22:00:00 7.9 7 Noroeste 13 Noroeste 0 -- -- 92
2019-12-07 21:00:00 8.4 3 Noroeste 8 Noroeste 0 -- -- 91
2019-12-07 20:00:00 8.4 7 Noroeste 10 Noroeste 0 -- -- 92
2019-12-07 19:00:00 9.1 3 Norte 5 Noroeste 0 -- -- 90
2019-12-07 18:00:00 11.6 2 Sudeste 10 Sudeste 0 -- -- 80
2019-12-07 17:00:00 15.4 8 Sudeste 16 Sudeste 0 -- -- 65
2019-12-07 16:00:00 17.5 7 Sudeste 12 Sudeste 0 -- -- 56
2019-12-07 15:00:00 18 8 Sudeste 14 Sudeste 0 -- -- 53
2019-12-07 14:00:00 18.2 5 Sudeste 11 Sudeste 0 -- -- 50
2019-12-07 13:00:00 17.9 3 Sur 6 Sudeste 0 -- -- 52
2019-12-07 12:00:00 15.3 5 Noroeste 8 Noroeste 0 -- -- 59
2019-12-07 11:00:00 13.1 7 Noroeste 14 Noroeste 0 -- -- 67
2019-12-07 10:00:00 10.3 8 Noroeste 18 Noroeste 0 -- -- 77
2019-12-07 09:00:00 7.4 11 Noroeste 17 Noroeste 0 -- -- 87
2019-12-07 08:00:00 6.5 2 Oeste 16 Noroeste 0 -- -- 90
2019-12-07 07:00:00 6.4 6 Noroeste 13 Noroeste 0 -- -- 92
2019-12-07 06:00:00 6.3 5 Noroeste 8 Noroeste 0 -- -- 92
2019-12-07 05:00:00 6.2 8 Noroeste 10 Noroeste 0 -- -- 94
2019-12-07 04:00:00 7.3 5 Noroeste 12 Oeste 0 -- -- 93
2019-12-07 03:00:00 6.8 5 Noroeste 9 Noroeste 0 -- -- 93
2019-12-07 02:00:00 7.3 6 Noroeste 8 Noroeste 0 -- -- 94
2019-12-07 01:00:00 7.8 3 Norte 12 Noroeste 0 -- -- 94
2019-12-07 00:00:00 8.6 7 Noroeste 11 Noroeste 0 -- -- 93
2019-12-06 23:00:00 9.2 5 Noroeste 10 Norte 0 -- -- 91
2019-12-06 22:00:00 9.6 6 Noroeste 8 Noroeste 0 -- -- 95
2019-12-06 21:00:00 10.6 4 Noroeste 9 Noroeste 0 -- -- 94
2019-12-06 20:00:00 11.8 0 Calma 3 Sur 0 -- -- 94
2019-12-06 19:00:00 12.7 3 Sur 6 Sur 0 -- -- 92
2019-12-06 18:00:00 13.1 0 Calma 4 Sudoeste 0 -- -- 90
2019-12-06 17:00:00 13.7 3 Sudoeste 10 Sudoeste 0 -- -- 86
2019-12-06 16:00:00 14.2 5 Sudoeste 11 Sur 0 -- -- 83
2019-12-06 15:00:00 14.5 6 Sur 12 Sur 0 -- -- 78
2019-12-06 14:00:00 14 9 Sur 13 Sudeste 0 -- -- 83
2019-12-06 13:00:00 15.1 3 Nordeste 9 Sur 0 -- -- 75
2019-12-06 12:00:00 14.1 6 Sur 8 Sur 0 -- -- 82
2019-12-06 11:00:00 11.9 2 Sur 5 Sur 0 -- -- 95
2019-12-06 10:00:00 10.5 0 Calma 5 Oeste 0 -- -- 96
2019-12-06 09:00:00 9.7 3 Oeste 10 Noroeste 0 -- -- 96
2019-12-06 08:00:00 8.9 3 Noroeste 7 Norte 0 -- -- 95
2019-12-06 07:00:00 9.7 7 Noroeste 12 Noroeste 0 -- -- 95
2019-12-06 06:00:00 9.5 2 Oeste 10 Noroeste 0 -- -- 96
2019-12-06 05:00:00 9.4 6 Noroeste 9 Noroeste 0 -- -- 96
2019-12-06 04:00:00 10.4 3 Norte 10 Noroeste 0 -- -- 95
2019-12-06 03:00:00 10.3 6 Noroeste 9 Noroeste 0 -- -- 96
2019-12-06 02:00:00 10.4 4 Noroeste 10 Oeste 0 -- -- 96
2019-12-06 01:00:00 10.4 5 Noroeste 10 Noroeste 0.2 -- -- 96
2019-12-06 00:00:00 10.3 0 Calma 3 Oeste 0.2 -- -- 96
2019-12-05 23:00:00 10.3 3 Noroeste 9 Norte 0 -- -- 95
2019-12-05 22:00:00 10.1 5 Noroeste 9 Noroeste 0 -- -- 96
2019-12-05 21:00:00 9.4 4 Noroeste 8 Noroeste 0 -- -- 96
2019-12-05 20:00:00 10.1 5 Noroeste 8 Noroeste 0 -- -- 95
2019-12-05 19:00:00 10.8 4 Oeste 6 Oeste 0 -- -- 94
2019-12-05 18:00:00 11.5 3 Este 7 Este 0 -- -- 93
2019-12-05 17:00:00 11.8 0 Calma 4 Noroeste 0.6 -- -- 94
2019-12-05 16:00:00 12 0 Calma 5 Oeste 0.2 -- -- 93
2019-12-05 15:00:00 12.2 4 Sudoeste 5 Sudoeste 1.2 -- -- 92
2019-12-05 14:00:00 12.5 0 Calma 5 Oeste 1.8 -- -- 89
2019-12-05 13:00:00 12.5 3 Oeste 6 Sudoeste 0.4 -- -- 91
2019-12-05 12:00:00 11.6 4 Noroeste 7 Oeste 1 -- -- 93
2019-12-05 11:00:00 11.1 4 Noroeste 8 Noroeste 0.6 -- -- 94
2019-12-05 10:00:00 10.8 0 Calma 14 Norte 2.2 -- -- 93
2019-12-05 09:00:00 10.1 2 Norte 14 Norte 4.2 -- -- 94
2019-12-05 08:00:00 10.4 8 Nordeste 18 Nordeste 2.6 -- -- 90
2019-12-05 07:00:00 11.1 8 Nordeste 21 Este 0 -- -- 82
2019-12-05 06:00:00 11 5 Nordeste 16 Nordeste 0 -- -- 85
2019-12-05 05:00:00 10.9 5 Nordeste 15 Nordeste 0 -- -- 87
2019-12-05 04:00:00 10.6 6 Nordeste 12 Nordeste 0 -- -- 90
2019-12-05 03:00:00 10.4 5 Nordeste 18 Norte 0.6 -- -- 90
2019-12-05 02:00:00 10.6 10 Nordeste 22 Nordeste 0.2 -- -- 88
2019-12-05 01:00:00 10.7 7 Norte 18 Nordeste 0 -- -- 86
2019-12-05 00:00:00 10.7 9 Nordeste 19 Nordeste 0.2 -- -- 85
2019-12-04 23:00:00 10.8 9 Norte 23 Norte 0.8 -- -- 84
2019-12-04 22:00:00 11.1 8 Norte 22 Norte 0.2 -- -- 81
2019-12-04 21:00:00 10.3 6 Oeste 10 Noroeste 0 -- -- 92
2019-12-04 20:00:00 10.4 6 Noroeste 21 Oeste 1.8 -- -- 92
2019-12-04 19:00:00 10.5 11 Oeste 18 Noroeste 1.4 -- -- 91
2019-12-04 18:00:00 10.9 5 Noroeste 11 Norte 1 -- -- 88
2019-12-04 17:00:00 12.4 5 Norte 15 Norte 0.2 -- -- 78
2019-12-04 16:00:00 13.2 2 Este 13 Este 0 -- -- 67
2019-12-04 15:00:00 13.4 6 Este 16 Oeste 0 -- -- 68
2019-12-04 14:00:00 12.4 10 Noroeste 18 Noroeste 0 -- -- 74
2019-12-04 13:00:00 14.9 8 Oeste 30 Norte 0 -- -- 64
2019-12-04 12:00:00 12.3 13 Norte 32 Nordeste 0.2 -- -- 67
2019-12-04 11:00:00 10.4 10 Norte 36 Nordeste 0.8 -- -- 78
2019-12-04 10:00:00 10 14 Norte 43 Nordeste 1.6 -- -- 80
2019-12-04 09:00:00 10 24 Nordeste 45 Nordeste 1.2 -- -- 83
2019-12-04 08:00:00 11.3 23 Nordeste 44 Nordeste 0.4 -- -- 77
2019-12-04 07:00:00 11.5 19 Nordeste 33 Norte 2 -- -- 80
2019-12-04 06:00:00 11.3 13 Nordeste 31 Norte 0.8 -- -- 84
2019-12-04 05:00:00 11.1 14 Nordeste 33 Nordeste 1 -- -- 85
2019-12-04 04:00:00 12 17 Nordeste 39 Nordeste 0 -- -- 78
2019-12-04 03:00:00 11.7 22 Norte 35 Nordeste 0 -- -- 81
2019-12-04 02:00:00 11.7 5 Nordeste 28 Norte 0 -- -- 80
2019-12-04 01:00:00 11.3 12 Norte 26 Nordeste 0 -- -- 83
2019-12-04 00:00:00 10.7 10 Nordeste 23 Norte 0.4 -- -- 85
2019-12-03 23:00:00 9.7 9 Norte 17 Norte 0.4 -- -- 88
2019-12-03 22:00:00 8.7 6 Oeste 17 Norte 2.6 -- -- 92
2019-12-03 21:00:00 8.8 4 Este 18 Norte 0.8 -- -- 87
2019-12-03 20:00:00 8.8 8 Norte 17 Norte 0.4 -- -- 80
2019-12-03 19:00:00 8.6 3 Norte 8 Oeste 0 -- -- 87
2019-12-03 18:00:00 8.9 5 Oeste 8 Oeste 0 -- -- 89
2019-12-03 17:00:00 9.6 6 Sur 10 Sur 0.4 -- -- 84
2019-12-03 16:00:00 10.6 2 Sur 9 Norte 0 -- -- 71
2019-12-03 15:00:00 10.2 6 Nordeste 12 Nordeste 0 -- -- 71
2019-12-03 14:00:00 10.2 2 Sudeste 16 Este 0 -- -- 81
2019-12-03 13:00:00 10.3 2 Norte 4 Norte 0 -- -- 78
2019-12-03 12:00:00 9.9 0 Calma 5 Nordeste 0 -- -- 76
2019-12-03 11:00:00 9.9 4 Nordeste 14 Nordeste 0.2 -- -- 78
2019-12-03 10:00:00 9.9 8 Nordeste 17 Nordeste 0 -- -- 78
2019-12-03 09:00:00 9.3 3 Oeste 6 Noroeste 0 -- -- 94
2019-12-03 08:00:00 9.3 0 Calma 6 Norte 0 -- -- 93
2019-12-03 07:00:00 9.3 0 Calma 9 Oeste 0 -- -- 93
2019-12-03 06:00:00 9.4 0 Calma 2 Sudoeste 0 -- -- 93
2019-12-03 05:00:00 9.6 0 Calma 7 Sur 0.2 -- -- 91
2019-12-03 04:00:00 10.4 4 Nordeste 10 Norte 0 -- -- 83
2019-12-03 03:00:00 10.5 5 Norte 12 Norte 0 -- -- 81
2019-12-03 02:00:00 9.8 6 Norte 10 Norte 0 -- -- 84
2019-12-03 01:00:00 8.5 6 Noroeste 8 Noroeste 0 -- -- 91
2019-12-03 00:00:00 8 3 Norte 6 Noroeste 0 -- -- 90
2019-12-02 23:00:00 9.6 2 Norte 4 Noroeste 0 -- -- 88
2019-12-02 22:00:00 10.4 0 Calma 8 Oeste 0 -- -- 85
2019-12-02 21:00:00 11.2 3 Nordeste 5 Nordeste 0 -- -- 76
2019-12-02 20:00:00 11.5 3 Norte 11 Este 0 -- -- 72
2019-12-02 19:00:00 11.9 2 Norte 9 Este 0 -- -- 68
2019-12-02 18:00:00 12.5 6 Este 24 Nordeste 0 -- -- 63
2019-12-02 17:00:00 12.7 14 Nordeste 29 Nordeste 0 -- -- 64
2019-12-02 16:00:00 12.4 15 Nordeste 27 Nordeste 0.2 -- -- 68
2019-12-02 15:00:00 11.9 9 Nordeste 32 Nordeste 0.6 -- -- 74
2019-12-02 14:00:00 13.2 13 Nordeste 33 Nordeste 0 -- -- 65
2019-12-02 13:00:00 12.7 13 Nordeste 31 Este 0.2 -- -- 68
2019-12-02 12:00:00 11.5 7 Nordeste 21 Nordeste 0.4 -- -- 77
2019-12-02 11:00:00 11.5 11 Nordeste 28 Nordeste 0.2 -- -- 73
2019-12-02 10:00:00 11.5 8 Nordeste 18 Nordeste 0 -- -- 72
2019-12-02 09:00:00 10.6 4 Nordeste 10 Norte 0.2 -- -- 73
2019-12-02 08:00:00 11.2 6 Norte 15 Norte 0 -- -- 66
2019-12-02 07:00:00 11.6 9 Norte 17 Norte 0 -- -- 60
2019-12-02 06:00:00 9 3 Noroeste 9 Nordeste 0 -- -- 75
2019-12-02 05:00:00 11.5 8 Nordeste 15 Nordeste 0 -- -- 61
2019-12-02 04:00:00 10.2 4 Norte 11 Sudeste 0 -- -- 72
2019-12-02 03:00:00 7.7 0 Calma 5 Noroeste 0 -- -- 90
2019-12-02 02:00:00 8.2 0 Calma 6 Oeste 0 -- -- 89
2019-12-02 01:00:00 9 2 Oeste 9 Noroeste 0 -- -- 85
2019-12-02 00:00:00 8.9 5 Noroeste 8 Noroeste 0 -- -- 87
2019-12-01 23:00:00 8.3 5 Noroeste 10 Noroeste 0 -- -- 85
2019-12-01 22:00:00 8.8 6 Noroeste 11 Noroeste 0 -- -- 83
2019-12-01 21:00:00 9.3 8 Noroeste 11 Noroeste 0 -- -- 79
2019-12-01 20:00:00 8.9 2 Noroeste 8 Sudeste 0 -- -- 79
2019-12-01 19:00:00 12.3 8 Sudeste 14 Sudeste 0 -- -- 63
2019-12-01 18:00:00 13.4 6 Oeste 19 Oeste 0 -- -- 56
2019-12-01 17:00:00 16.8 10 Oeste 20 Oeste 0 -- -- 44
2019-12-01 16:00:00 17.4 15 Noroeste 28 Oeste 0 -- -- 41
2019-12-01 15:00:00 17.7 15 Oeste 33 Oeste 0 -- -- 41
2019-12-01 14:00:00 17.5 14 Oeste 36 Oeste 0 -- -- 42
2019-12-01 13:00:00 17 21 Oeste 37 Oeste 0 -- -- 41
2019-12-01 12:00:00 16.1 16 Oeste 38 Oeste 0 -- -- 46
2019-12-01 11:00:00 15.2 18 Oeste 30 Oeste 0 -- -- 49
2019-12-01 10:00:00 14.2 13 Oeste 24 Oeste 0 -- -- 64
2019-12-01 09:00:00 11.1 6 Noroeste 10 Noroeste 0 -- -- 80
2019-12-01 08:00:00 11.1 4 Nordeste 14 Oeste 0 -- -- 80
2019-12-01 07:00:00 12 4 Sudoeste 12 Noroeste 0 -- -- 79
2019-12-01 06:00:00 13 4 Norte 8 Noroeste 0 -- -- 77
2019-12-01 05:00:00 12.1 4 Nordeste 9 Noroeste 0 -- -- 79
2019-12-01 04:00:00 13.7 7 Oeste 17 Noroeste 0 -- -- 73
2019-12-01 03:00:00 14.6 13 Noroeste 32 Noroeste 0 -- -- 69
2019-12-01 02:00:00 14.8 15 Noroeste 27 Noroeste 0 -- -- 67
2019-12-01 01:00:00 14.8 15 Oeste 29 Noroeste 0 -- -- 65
2019-12-01 00:00:00 14.8 21 Noroeste 30 Noroeste 0 -- -- 65
2019-11-30 23:00:00 14.6 14 Oeste 32 Oeste 0 -- -- 65
2019-11-30 22:00:00 15.5 19 Oeste 29 Oeste 0 -- -- 61
2019-11-30 21:00:00 16 12 Oeste 25 Oeste 0 -- -- 59
2019-11-30 20:00:00 15.7 10 Oeste 17 Oeste 0 -- -- 61
2019-11-30 19:00:00 16.5 8 Oeste 18 Oeste 0 -- -- 61
2019-11-30 18:00:00 18.5 10 Oeste 27 Oeste 0 -- -- 55
2019-11-30 17:00:00 21.3 15 Oeste 35 Oeste 0 -- -- 46
2019-11-30 16:00:00 22.4 18 Oeste 37 Oeste 0 -- -- 43
2019-11-30 15:00:00 22.3 19 Oeste 32 Oeste 0 -- -- 44
2019-11-30 14:00:00 22 19 Oeste 33 Oeste 0 -- -- 46
2019-11-30 13:00:00 21.4 18 Oeste 30 Oeste 0 -- -- 47
2019-11-30 12:00:00 20.3 18 Oeste 33 Oeste 0 -- -- 52
2019-11-30 11:00:00 18.8 14 Oeste 27 Oeste 0 -- -- 59
2019-11-30 10:00:00 15.6 2 Noroeste 5 Oeste 0 -- -- 69
2019-11-30 09:00:00 10.9 3 Norte 9 Norte 0 -- -- 84
2019-11-30 08:00:00 10 4 Norte 10 Noroeste 0 -- -- 85
2019-11-30 07:00:00 10.1 9 Noroeste 14 Noroeste 0 -- -- 88
2019-11-30 06:00:00 10.8 8 Norte 10 Noroeste 0 -- -- 83
2019-11-30 05:00:00 10.3 2 Norte 9 Oeste 0 -- -- 86
2019-11-30 04:00:00 11 3 Norte 10 Norte 0 -- -- 83
2019-11-30 03:00:00 11.6 3 Oeste 7 Norte 0 -- -- 84
2019-11-30 02:00:00 11.5 7 Noroeste 9 Noroeste 0 -- -- 84
2019-11-30 01:00:00 13 5 Noroeste 9 Noroeste 0 -- -- 78
2019-11-30 00:00:00 14.2 6 Noroeste 12 Noroeste 0 -- -- 76
2019-11-29 23:00:00 14.9 4 Noroeste 14 Noroeste 0 -- -- 72
2019-11-29 22:00:00 15.7 6 Noroeste 18 Noroeste 0 -- -- 69
2019-11-29 21:00:00 15.9 7 Noroeste 21 Oeste 0 -- -- 69
2019-11-29 20:00:00 17.8 15 Noroeste 33 Noroeste 0 -- -- 63
2019-11-29 19:00:00 18.6 19 Oeste 34 Noroeste 0 -- -- 58
2019-11-29 18:00:00 19.1 10 Oeste 25 Oeste 0 -- -- 55
2019-11-29 17:00:00 21.5 14 Oeste 31 Oeste 0 -- -- 48
2019-11-29 16:00:00 22.4 11 Oeste 21 Noroeste 0 -- -- 47
2019-11-29 15:00:00 23 14 Oeste 25 Oeste 0 -- -- 44
2019-11-29 14:00:00 20.9 13 Oeste 24 Oeste 0 -- -- 50
2019-11-29 13:00:00 19.4 12 Oeste 23 Oeste 0 -- -- 56
2019-11-29 12:00:00 18.3 17 Oeste 26 Oeste 0 -- -- 58
2019-11-29 11:00:00 16.7 13 Oeste 44 Oeste 0 -- -- 62
2019-11-29 10:00:00 16 20 Noroeste 43 Oeste 0 -- -- 64
2019-11-29 09:00:00 16.1 25 Oeste 40 Oeste 0 -- -- 62
2019-11-29 08:00:00 16.2 22 Oeste 45 Oeste 0 -- -- 61
2019-11-29 07:00:00 16.2 23 Oeste 40 Oeste 0 -- -- 61
2019-11-29 06:00:00 16.3 22 Oeste 38 Oeste 0 -- -- 61
2019-11-29 05:00:00 15.9 22 Oeste 38 Noroeste 0 -- -- 61
2019-11-29 04:00:00 16 23 Oeste 35 Oeste 0 -- -- 61
2019-11-29 03:00:00 15.9 17 Noroeste 37 Oeste 0 -- -- 60
2019-11-29 02:00:00 15.5 9 Oeste 29 Oeste 0 -- -- 61
2019-11-29 01:00:00 15.4 14 Oeste 38 Noroeste 0 -- -- 61
2019-11-29 00:00:00 15.4 22 Oeste 39 Noroeste 0 -- -- 62
2019-11-28 23:00:00 15.2 19 Oeste 37 Oeste 0 -- -- 60
2019-11-28 22:00:00 15.2 20 Oeste 39 Oeste 0 -- -- 60
2019-11-28 21:00:00 15.4 22 Oeste 34 Oeste 0 -- -- 57
2019-11-28 20:00:00 15.2 18 Oeste 36 Oeste 0 -- -- 57
2019-11-28 19:00:00 15.1 19 Oeste 35 Oeste 0 -- -- 57
2019-11-28 18:00:00 15.5 22 Oeste 38 Oeste 0 -- -- 57
2019-11-28 17:00:00 16.4 21 Oeste 39 Oeste 0 -- -- 54
2019-11-28 16:00:00 17.3 14 Oeste 31 Oeste 0 -- -- 53
2019-11-28 15:00:00 17.9 16 Oeste 30 Oeste 0 -- -- 52
2019-11-28 14:00:00 17.8 16 Sudoeste 32 Oeste 0 -- -- 51
2019-11-28 13:00:00 18 12 Oeste 36 Oeste 0 -- -- 50
2019-11-28 12:00:00 17.5 22 Oeste 40 Oeste 0 -- -- 52
2019-11-28 11:00:00 16.2 26 Oeste 40 Oeste 0 -- -- 55
2019-11-28 10:00:00 15 14 Oeste 26 Sudoeste 0 -- -- 58
2019-11-28 09:00:00 10.2 5 Oeste 10 Nordeste 0 -- -- 75
2019-11-28 08:00:00 9.1 5 Norte 23 Oeste 0 -- -- 75
2019-11-28 07:00:00 12.9 12 Oeste 23 Oeste 0 -- -- 63
2019-11-28 06:00:00 12.1 12 Sudoeste 18 Sudoeste 0 -- -- 66
2019-11-28 05:00:00 12.1 6 Sur 19 Sur 0 -- -- 66
2019-11-28 04:00:00 12.7 6 Sur 21 Sudoeste 0 -- -- 62
2019-11-28 03:00:00 13.1 6 Sudoeste 34 Oeste 0 -- -- 62
2019-11-28 02:00:00 13.6 10 Oeste 24 Oeste 0 -- -- 61
2019-11-28 01:00:00 13.5 10 Sudoeste 32 Oeste 0 -- -- 61
2019-11-28 00:00:00 13.9 22 Oeste 29 Oeste 0 -- -- 60
2019-11-27 23:00:00 15.2 19 Oeste 33 Oeste 0 -- -- 53
2019-11-27 22:00:00 15.6 22 Oeste 36 Oeste 0 -- -- 50
2019-11-27 21:00:00 15.2 16 Oeste 32 Noroeste 0 -- -- 52
2019-11-27 20:00:00 15.1 10 Oeste 38 Oeste 0 -- -- 53
2019-11-27 19:00:00 15.6 18 Oeste 34 Oeste 0 -- -- 49
2019-11-27 18:00:00 16.1 6 Noroeste 36 Oeste 0 -- -- 47
2019-11-27 17:00:00 17.4 18 Noroeste 42 Oeste 0 -- -- 46
2019-11-27 16:00:00 17.8 27 Oeste 46 Oeste 0 -- -- 45
2019-11-27 15:00:00 18.6 24 Oeste 55 Noroeste 0 -- -- 44
2019-11-27 14:00:00 19.5 27 Oeste 54 Oeste 0 -- -- 42
2019-11-27 06:00:00 15.8 8 Oeste 25 Oeste 0 -- -- 63
2019-11-27 05:00:00 17.1 15 Oeste 36 Oeste 0 -- -- 58
2019-11-27 04:00:00 17.5 12 Oeste 37 Oeste 0 -- -- 57
2019-11-27 03:00:00 17.7 7 Sudoeste 32 Oeste 0 -- -- 62
2019-11-27 02:00:00 17.9 16 Sudoeste 36 Oeste 0 -- -- 64
2019-11-27 01:00:00 17.8 15 Oeste 29 Oeste 0 -- -- 64
2019-11-27 00:00:00 17.3 13 Oeste 28 Oeste 0 -- -- 64
2019-11-26 23:00:00 17.8 19 Oeste 37 Oeste 0 -- -- 63
2019-11-26 22:00:00 17.6 12 Oeste 31 Oeste 0 -- -- 64
2019-11-26 21:00:00 17.9 11 Oeste 27 Oeste 0 -- -- 62
2019-11-26 20:00:00 17.6 17 Oeste 31 Oeste 0 -- -- 60
2019-11-26 19:00:00 17.9 12 Oeste 35 Oeste 0 -- -- 58
2019-11-26 18:00:00 18.7 19 Oeste 34 Oeste 0 -- -- 58
2019-11-26 17:00:00 20.3 15 Oeste 33 Oeste 0 -- -- 53
2019-11-26 16:00:00 22.1 18 Oeste 33 Oeste 0 -- -- 49
2019-11-26 15:00:00 22.1 22 Oeste 41 Oeste 0 -- -- 48
2019-11-26 14:00:00 21.5 28 Oeste 45 Oeste 0 -- -- 46
2019-11-26 13:00:00 20.8 24 Oeste 43 Oeste 0 -- -- 46
2019-11-26 12:00:00 19.9 26 Oeste 40 Noroeste 0 -- -- 47
2019-11-26 11:00:00 18.8 21 Oeste 34 Oeste 0 -- -- 50
2019-11-26 10:00:00 17.4 17 Noroeste 39 Noroeste 0 -- -- 56
2019-11-26 09:00:00 14.4 8 Noroeste 15 Noroeste 0 -- -- 66
2019-11-26 08:00:00 9.8 8 Oeste 11 Oeste 0 -- -- 83
2019-11-26 07:00:00 11.8 2 Norte 10 Oeste 0 -- -- 75
2019-11-26 06:00:00 13.8 7 Noroeste 19 Oeste 0 -- -- 67
2019-11-26 05:00:00 14.3 10 Oeste 26 Noroeste 0 -- -- 66
2019-11-26 04:00:00 10.5 10 Noroeste 16 Noroeste 0 -- -- 83
2019-11-26 03:00:00 9.4 3 Norte 13 Noroeste 0 -- -- 83
2019-11-26 02:00:00 11.6 10 Noroeste 13 Oeste 0 -- -- 78
2019-11-26 01:00:00 10.8 0 Calma 9 Noroeste 0 -- -- 78
2019-11-26 00:00:00 13.6 8 Noroeste 14 Noroeste 0 -- -- 68
2019-11-25 23:00:00 12.1 0 Calma 10 Noroeste 0 -- -- 70
2019-11-25 22:00:00 12.5 10 Noroeste 14 Noroeste 0 -- -- 67
2019-11-25 21:00:00 13.6 2 Este 14 Oeste 0 -- -- 65
2019-11-25 20:00:00 15.1 11 Oeste 15 Oeste 0 -- -- 65
2019-11-25 19:00:00 15.8 8 Noroeste 24 Noroeste 0 -- -- 54
2019-11-25 18:00:00 18.3 12 Oeste 30 Oeste 0 -- -- 46
2019-11-25 17:00:00 20.3 20 Oeste 35 Oeste 0 -- -- 42
2019-11-25 16:00:00 20.8 22 Oeste 39 Oeste 0 -- -- 42
2019-11-25 15:00:00 21.8 17 Noroeste 35 Oeste 0 -- -- 40
2019-11-25 14:00:00 21 20 Oeste 41 Oeste 0 -- -- 44
2019-11-25 13:00:00 20.5 22 Oeste 45 Oeste 0 -- -- 47
2019-11-25 12:00:00 19.1 25 Oeste 41 Oeste 0 -- -- 51
2019-11-25 11:00:00 17.7 16 Oeste 26 Noroeste 0 -- -- 56
2019-11-25 10:00:00 15.2 10 Oeste 22 Oeste 0 -- -- 64
2019-11-25 09:00:00 14.4 13 Oeste 33 Oeste 0 -- -- 65
2019-11-25 08:00:00 13 8 Oeste 19 Oeste 0 -- -- 68
2019-11-25 07:00:00 12.9 14 Oeste 36 Oeste 0 -- -- 66
2019-11-25 06:00:00 12.9 21 Oeste 46 Oeste 0 -- -- 65
2019-11-25 05:00:00 12.9 18 Oeste 33 Oeste 0 -- -- 65
2019-11-25 04:00:00 12.7 15 Oeste 32 Oeste 0 -- -- 65
2019-11-25 03:00:00 12.3 16 Oeste 43 Oeste 0 -- -- 63
2019-11-25 02:00:00 12.2 20 Oeste 36 Oeste 0 -- -- 59
2019-11-25 01:00:00 11.8 14 Noroeste 44 Oeste 0 -- -- 56
2019-11-25 00:00:00 12.1 22 Oeste 46 Oeste 0 -- -- 54
2019-11-24 23:00:00 12 19 Noroeste 37 Noroeste 0 -- -- 54
2019-11-24 22:00:00 12.2 14 Noroeste 34 Oeste 0 -- -- 54
2019-11-24 21:00:00 12.4 11 Noroeste 33 Noroeste 0 -- -- 52
2019-11-24 20:00:00 13 11 Noroeste 26 Oeste 0 -- -- 48
2019-11-24 19:00:00 13.6 13 Noroeste 31 Noroeste 0 -- -- 47
2019-11-24 18:00:00 14.9 20 Oeste 35 Oeste 0 -- -- 44
2019-11-24 17:00:00 16.6 21 Noroeste 38 Oeste 0 -- -- 42
2019-11-24 16:00:00 16.8 18 Noroeste 39 Noroeste 0 -- -- 39
2019-11-24 15:00:00 18.1 16 Oeste 33 Oeste 0 -- -- 36
2019-11-24 14:00:00 17.9 20 Oeste 36 Noroeste 0 -- -- 37
2019-11-24 13:00:00 16.8 19 Oeste 36 Noroeste 0 -- -- 38
2019-11-24 12:00:00 17 19 Oeste 33 Oeste 0 -- -- 38
2019-11-24 11:00:00 16.1 23 Oeste 45 Oeste 0 -- -- 39
2019-11-24 10:00:00 13.3 22 Sudoeste 41 Oeste 0 -- -- 47
2019-11-24 09:00:00 12 12 Sudoeste 21 Oeste 0 -- -- 49
2019-11-24 08:00:00 10.8 14 Noroeste 36 Oeste 0 -- -- 52
2019-11-24 07:00:00 11.1 21 Oeste 38 Oeste 0 -- -- 52
2019-11-24 06:00:00 11.4 19 Oeste 37 Oeste 0 -- -- 51
2019-11-24 05:00:00 11.5 21 Oeste 35 Oeste 0 -- -- 51
2019-11-24 04:00:00 11.2 13 Oeste 23 Sudoeste 0 -- -- 52
2019-11-24 03:00:00 11.5 15 Oeste 29 Oeste 0 -- -- 52
2019-11-24 02:00:00 11.7 14 Oeste 31 Oeste 0 -- -- 52
2019-11-24 01:00:00 11.5 13 Sudoeste 27 Oeste 0 -- -- 52
2019-11-24 00:00:00 10.8 13 Oeste 29 Oeste 0 -- -- 54
2019-11-23 23:00:00 12.3 24 Oeste 42 Oeste 0 -- -- 48
2019-11-23 22:00:00 12 10 Noroeste 39 Noroeste 0 -- -- 50
2019-11-23 21:00:00 12.1 13 Noroeste 28 Noroeste 0 -- -- 49
2019-11-23 20:00:00 12.1 12 Noroeste 26 Oeste 0 -- -- 49
2019-11-23 19:00:00 13.7 18 Oeste 50 Noroeste 0 -- -- 42
2019-11-23 18:00:00 14.3 24 Noroeste 45 Noroeste 0 -- -- 40
2019-11-23 17:00:00 15.4 26 Noroeste 46 Noroeste 0 -- -- 36
2019-11-23 16:00:00 16.2 23 Noroeste 58 Noroeste 0 -- -- 37
2019-11-23 15:00:00 16.5 26 Noroeste 51 Noroeste 0 -- -- 40
2019-11-23 14:00:00 15.8 25 Noroeste 44 Oeste 0 -- -- 44
2019-11-23 13:00:00 14.4 22 Oeste 39 Noroeste 0 -- -- 48
2019-11-23 12:00:00 14.3 25 Noroeste 54 Noroeste 0 -- -- 50
2019-11-23 11:00:00 12.8 23 Oeste 53 Oeste 0 -- -- 56
2019-11-23 10:00:00 11.7 19 Oeste 37 Oeste 0 -- -- 62
2019-11-23 09:00:00 11.8 24 Oeste 43 Oeste 0 -- -- 61
2019-11-23 08:00:00 11 16 Oeste 46 Oeste 0 -- -- 64
2019-11-23 07:00:00 10.8 18 Oeste 45 Oeste 0 -- -- 62
2019-11-23 06:00:00 10.9 21 Oeste 37 Oeste 0 -- -- 71
2019-11-23 05:00:00 12.8 19 Oeste 51 Oeste 0 -- -- 64
2019-11-23 04:00:00 13.4 28 Oeste 46 Oeste 0 -- -- 60
2019-11-23 03:00:00 13.4 22 Oeste 37 Oeste 0 -- -- 65
2019-11-23 02:00:00 13.2 24 Oeste 50 Oeste 0.2 -- -- 68
2019-11-23 01:00:00 12.4 10 Oeste 39 Oeste 0 -- -- 77
2019-11-23 00:00:00 9.9 9 Noroeste 23 Oeste 0 -- -- 96
2019-11-22 23:00:00 9.5 6 Oeste 11 Oeste 0 -- -- 95
2019-11-22 22:00:00 11 4 Oeste 12 Norte 0 -- -- 95
2019-11-22 21:00:00 11.4 5 Norte 9 Norte 0 -- -- 95
2019-11-22 20:00:00 11.5 4 Este 11 Sudeste 0.4 -- -- 94
2019-11-22 19:00:00 11.6 4 Noroeste 13 Noroeste 0.4 -- -- 94
2019-11-22 18:00:00 12 4 Noroeste 7 Noroeste 0.6 -- -- 93
2019-11-22 17:00:00 12.5 3 Nordeste 6 Norte 1.2 -- -- 89
2019-11-22 16:00:00 13.7 4 Norte 12 Este 0 -- -- 78
2019-11-22 15:00:00 14.8 8 Sudeste 14 Sudeste 0 -- -- 66
2019-11-22 14:00:00 14.9 8 Este 17 Este 0 -- -- 64
2019-11-22 13:00:00 15.7 8 Sudeste 15 Sudeste 0 -- -- 62
2019-11-22 12:00:00 14.1 0 Calma 5 Sudeste 0 -- -- 64
2019-11-22 11:00:00 12 3 Norte 5 Nordeste 0 -- -- 71
2019-11-22 10:00:00 10.1 0 Calma 3 Nordeste 0 -- -- 83
2019-11-22 09:00:00 8.6 0 Calma 6 Norte 0 -- -- 85
2019-11-22 08:00:00 8.3 2 Noroeste 8 Noroeste 0 -- -- 86
2019-11-22 07:00:00 8.5 4 Norte 11 Norte 0 -- -- 85
2019-11-22 06:00:00 7.4 4 Noroeste 10 Oeste 0 -- -- 88
2019-11-22 05:00:00 7.8 7 Oeste 19 Noroeste 0 -- -- 87
2019-11-22 04:00:00 8.1 9 Noroeste 16 Noroeste 0 -- -- 89
2019-11-22 03:00:00 7 0 Calma 8 Noroeste 0 -- -- 89
2019-11-22 02:00:00 8.2 6 Noroeste 11 Noroeste 0 -- -- 89
2019-11-22 01:00:00 9.6 6 Noroeste 10 Oeste 0 -- -- 85
2019-11-22 00:00:00 10.2 5 Noroeste 7 Noroeste 0 -- -- 83
2019-11-21 23:00:00 10.3 5 Noroeste 8 Noroeste 0 -- -- 79
2019-11-21 22:00:00 11.2 4 Noroeste 9 Norte 0 -- -- 74
2019-11-21 21:00:00 11.3 0 Calma 7 Nordeste 0 -- -- 75
2019-11-21 20:00:00 11.6 2 Nordeste 6 Norte 0 -- -- 73
2019-11-21 19:00:00 11.2 4 Norte 6 Norte 0 -- -- 74
2019-11-21 18:00:00 11.3 2 Oeste 8 Noroeste 0 -- -- 76
2019-11-21 17:00:00 15 5 Sur 13 Sur 0 -- -- 58
2019-11-21 16:00:00 15.9 9 Sudoeste 18 Oeste 0 -- -- 53
2019-11-21 15:00:00 16.3 9 Oeste 24 Oeste 0 -- -- 51
2019-11-21 14:00:00 15 12 Oeste 24 Oeste 0 -- -- 55
2019-11-21 13:00:00 14.7 9 Noroeste 19 Oeste 0 -- -- 54
2019-11-21 12:00:00 14.3 8 Oeste 20 Oeste 0 -- -- 57
2019-11-21 11:00:00 13.1 7 Oeste 13 Noroeste 0 -- -- 61
2019-11-21 10:00:00 9.8 4 Nordeste 6 Noroeste 0 -- -- 74
2019-11-21 09:00:00 6.3 4 Noroeste 10 Noroeste 0 -- -- 87
2019-11-21 08:00:00 -- -- -- -- -- -- -- -- --
2019-11-21 07:00:00 -- -- -- -- -- -- -- -- --
2019-11-21 06:00:00 -- -- -- -- -- -- -- -- --
2019-11-21 05:00:00 -- -- -- -- -- -- -- -- --
2019-11-21 04:00:00 -- -- -- -- -- -- -- -- --
2019-11-21 03:00:00 -- -- -- -- -- -- -- -- --
2019-11-21 02:00:00 -- -- -- -- -- -- -- -- --
2019-11-21 01:00:00 -- -- -- -- -- -- -- -- --
2019-11-21 00:00:00 -- -- -- -- -- -- -- -- --
2019-11-20 23:00:00 -- -- -- -- -- -- -- -- --
2019-11-20 22:00:00 -- -- -- -- -- -- -- -- --
2019-11-20 21:00:00 -- -- -- -- -- -- -- -- --
2019-11-20 20:00:00 -- -- -- -- -- -- -- -- --
2019-11-20 19:00:00 11.1 5 Este 8 Nordeste 0 -- -- 58
2019-11-20 18:00:00 12.8 5 Sudoeste 19 Oeste 0 -- -- 45
2019-11-20 17:00:00 13.9 9 Sudoeste 22 Sudoeste 0 -- -- 43
2019-11-20 16:00:00 16.1 13 Sudoeste 25 Sudoeste 0 -- -- 38
2019-11-20 15:00:00 16 14 Sudoeste 23 Sudoeste 0 -- -- 36
2019-11-20 14:00:00 16.5 13 Sudoeste 22 Sudoeste 0 -- -- 36
2019-11-20 13:00:00 16 9 Sudoeste 21 Oeste 0 -- -- 41
2019-11-20 12:00:00 14.9 11 Noroeste 19 Oeste 0 -- -- 44
2019-11-20 11:00:00 13.2 5 Oeste 13 Oeste 0 -- -- 46
2019-11-20 10:00:00 9.8 8 Noroeste 14 Noroeste 0 -- -- 54
2019-11-20 09:00:00 6.7 5 Noroeste 12 Noroeste 0 -- -- 65
2019-11-20 08:00:00 3.8 6 Noroeste 14 Noroeste 0 -- -- 75
2019-11-20 07:00:00 5.1 9 Noroeste 13 Noroeste 0 -- -- 71
2019-11-20 06:00:00 5.7 4 Noroeste 10 Noroeste 0 -- -- 69
2019-11-20 05:00:00 6.4 9 Noroeste 14 Noroeste 0 -- -- 67
2019-11-20 04:00:00 6.4 9 Noroeste 13 Noroeste 0 -- -- 67
2019-11-20 03:00:00 6.6 9 Noroeste 15 Noroeste 0 -- -- 67
2019-11-20 02:00:00 6.5 9 Noroeste 14 Noroeste 0 -- -- 67
2019-11-20 01:00:00 5.9 2 Noroeste 13 Noroeste 0 -- -- 68
2019-11-20 00:00:00 6.8 8 Noroeste 15 Noroeste 0 -- -- 62
2019-11-19 23:00:00 8.2 9 Noroeste 15 Noroeste 0 -- -- 56
2019-11-19 22:00:00 7.9 10 Noroeste 16 Norte 0 -- -- 59
2019-11-19 21:00:00 8.7 10 Norte 14 Norte 0 -- -- 55
2019-11-19 20:00:00 9.3 9 Norte 12 Norte 0 -- -- 52
2019-11-19 19:00:00 10.3 6 Nordeste 14 Este 0 -- -- 55
2019-11-19 18:00:00 11.6 9 Este 19 Sudeste 0 -- -- 49
2019-11-19 17:00:00 15.1 6 Sudeste 18 Sudeste 0 -- -- 34
2019-11-19 16:00:00 16.9 8 Sur 15 Sudeste 0 -- -- 29
2019-11-19 15:00:00 16.8 7 Sur 15 Sur 0 -- -- 29
2019-11-19 14:00:00 16.2 8 Sudeste 15 Sudeste 0 -- -- 31
2019-11-19 13:00:00 15.3 5 Sudoeste 18 Sudoeste 0 -- -- 32
2019-11-19 12:00:00 14.1 6 Oeste 22 Sudoeste 0 -- -- 35
2019-11-19 11:00:00 12.4 9 Oeste 16 Oeste 0 -- -- 42
2019-11-19 10:00:00 9.7 10 Oeste 16 Oeste 0 -- -- 50
2019-11-19 09:00:00 4.7 6 Noroeste 11 Noroeste 0 -- -- 67
2019-11-19 08:00:00 0.3 5 Norte 7 Noroeste 0 -- -- 81
2019-11-19 07:00:00 0.9 4 Noroeste 12 Noroeste 0 -- -- 80
2019-11-19 06:00:00 4.5 8 Noroeste 15 Noroeste 0 -- -- 65
2019-11-19 05:00:00 2.9 4 Noroeste 15 Oeste 0 -- -- 71
2019-11-19 04:00:00 3 6 Oeste 18 Noroeste 0 -- -- 72
2019-11-19 03:00:00 4.3 6 Noroeste 13 Noroeste 0 -- -- 66
2019-11-19 02:00:00 4.2 8 Noroeste 13 Noroeste 0 -- -- 66
2019-11-19 01:00:00 3.3 8 Noroeste 15 Noroeste 0 -- -- 72
2019-11-19 00:00:00 3.3 4 Noroeste 12 Noroeste 0 -- -- 72
2019-11-18 23:00:00 4.4 6 Noroeste 12 Norte 0 -- -- 69
2019-11-18 22:00:00 5.1 5 Norte 12 Noroeste 0 -- -- 64
2019-11-18 21:00:00 5.1 6 Norte 13 Noroeste 0 -- -- 66
2019-11-18 20:00:00 6.8 4 Norte 12 Norte 0 -- -- 61
2019-11-18 19:00:00 9.9 6 Norte 21 Noroeste 0 -- -- 46
2019-11-18 18:00:00 12 8 Norte 28 Noroeste 0 -- -- 40
2019-11-18 17:00:00 13.6 12 Norte 32 Norte 0 -- -- 36
2019-11-18 16:00:00 14.3 19 Noroeste 36 Noroeste 0 -- -- 36
2019-11-18 15:00:00 14.2 20 Norte 39 Norte 0 -- -- 35
2019-11-18 14:00:00 13.6 21 Norte 44 Norte 0 -- -- 37
2019-11-18 13:00:00 14 23 Norte 41 Norte 0 -- -- 38
2019-11-18 12:00:00 16.1 4 Sudoeste 17 Oeste 0 -- -- 36
2019-11-18 11:00:00 15 4 Sur 14 Oeste 0 -- -- 42
2019-11-18 10:00:00 11.8 5 Oeste 13 Noroeste 0 -- -- 55
2019-11-18 09:00:00 8 5 Noroeste 13 Oeste 0 -- -- 65
2019-11-18 08:00:00 6.6 10 Noroeste 15 Oeste 0 -- -- 69
2019-11-18 07:00:00 4.9 8 Noroeste 13 Noroeste 0 -- -- 76
2019-11-18 06:00:00 6 6 Noroeste 13 Norte 0 -- -- 74
2019-11-18 05:00:00 7.9 8 Noroeste 14 Norte 0 -- -- 71
2019-11-18 04:00:00 8.7 8 Noroeste 18 Noroeste 0 -- -- 71
2019-11-18 03:00:00 9.1 9 Noroeste 20 Noroeste 0 -- -- 70
2019-11-18 02:00:00 10.8 9 Noroeste 23 Noroeste 0 -- -- 64
2019-11-18 01:00:00 9.9 2 Sudeste 8 Oeste 0 -- -- 76
2019-11-18 00:00:00 10.8 2 Noroeste 14 Sur 0 -- -- 71
2019-11-17 23:00:00 10.4 6 Sudoeste 9 Oeste 0 -- -- 72
2019-11-17 22:00:00 11.1 9 Noroeste 25 Oeste 0 -- -- 68
2019-11-17 21:00:00 11.2 17 Noroeste 31 Noroeste 0 -- -- 67
2019-11-17 20:00:00 10.9 18 Noroeste 34 Oeste 0 -- -- 65
2019-11-17 19:00:00 11 14 Sudoeste 31 Sudoeste 0 -- -- 64
2019-11-17 18:00:00 12 17 Oeste 33 Oeste 0 -- -- 60
2019-11-17 17:00:00 14.3 19 Oeste 40 Oeste 0 -- -- 51
2019-11-17 16:00:00 16.3 23 Oeste 40 Oeste 0 -- -- 44
2019-11-17 15:00:00 14.8 20 Oeste 42 Oeste 0 -- -- 44
2019-11-17 14:00:00 14.4 23 Oeste 53 Oeste 0 -- -- 42
2019-11-17 13:00:00 13.3 30 Oeste 49 Oeste 0 -- -- 44
2019-11-17 12:00:00 12.9 26 Oeste 52 Oeste 0 -- -- 44
2019-11-17 11:00:00 11.8 20 Oeste 35 Oeste 0 -- -- 43
2019-11-17 10:00:00 11.1 15 Oeste 30 Oeste 0 -- -- 43
2019-11-17 09:00:00 9.3 9 Oeste 33 Noroeste 0 -- -- 47
2019-11-17 08:00:00 7.8 20 Oeste 42 Oeste 0 -- -- 49
2019-11-17 07:00:00 6.5 15 Oeste 21 Oeste 0 -- -- 55
2019-11-17 06:00:00 5.4 9 Oeste 18 Oeste 0 -- -- 61
2019-11-17 05:00:00 2.5 2 Nordeste 9 Norte 0 -- -- 75
2019-11-17 04:00:00 6.4 5 Nordeste 14 Noroeste 0 -- -- 57
2019-11-17 03:00:00 4.8 0 Calma 22 Noroeste 0 -- -- 66
2019-11-17 02:00:00 7.2 10 Noroeste 23 Noroeste 0 -- -- 55
2019-11-17 01:00:00 6.6 10 Noroeste 25 Noroeste 0 -- -- 60
2019-11-17 00:00:00 7.6 5 Oeste 18 Oeste 0 -- -- 57
2019-11-16 23:00:00 8.1 9 Noroeste 18 Oeste 0 -- -- 57
2019-11-16 22:00:00 7.4 9 Oeste 15 Oeste 0 -- -- 58
2019-11-16 21:00:00 5.9 9 Oeste 14 Oeste 0 -- -- 62
2019-11-16 20:00:00 5.9 3 Noroeste 11 Oeste 0 -- -- 63
2019-11-16 19:00:00 9.1 6 Norte 12 Norte 0 -- -- 45
2019-11-16 18:00:00 11.6 4 Norte 18 Norte 0 -- -- 35
2019-11-16 17:00:00 14.5 5 Norte 24 Norte 0 -- -- 30
2019-11-16 16:00:00 15.6 15 Nordeste 27 Nordeste 0 -- -- 22
2019-11-16 15:00:00 16.3 5 Noroeste 27 Oeste 0 -- -- 28
2019-11-16 14:00:00 16 8 Oeste 21 Oeste 0 -- -- 32
2019-11-16 13:00:00 15.3 7 Oeste 15 Oeste 0 -- -- 32
2019-11-16 12:00:00 14.2 5 Sudoeste 13 Sudoeste 0 -- -- 36
2019-11-16 11:00:00 13.1 6 Sudoeste 13 Oeste 0 -- -- 41
2019-11-16 10:00:00 10.4 8 Oeste 14 Oeste 0 -- -- 51
2019-11-16 09:00:00 4.9 2 Sudeste 6 Noroeste 0 -- -- 75
2019-11-16 08:00:00 2.8 7 Noroeste 15 Noroeste 0 -- -- 78
2019-11-16 07:00:00 2.7 11 Noroeste 18 Oeste 0 -- -- 81
2019-11-16 06:00:00 3.7 8 Noroeste 16 Noroeste 0 -- -- 76
2019-11-16 05:00:00 2.3 3 Norte 12 Noroeste 0 -- -- 81
2019-11-16 04:00:00 3.1 4 Noroeste 10 Noroeste 0 -- -- 79
2019-11-16 03:00:00 4.9 4 Noroeste 14 Noroeste 0 -- -- 71
2019-11-16 02:00:00 4.9 8 Noroeste 19 Noroeste 0 -- -- 73
2019-11-16 01:00:00 5.8 10 Noroeste 16 Noroeste 0 -- -- 70
2019-11-16 00:00:00 6.8 5 Noroeste 11 Norte 0 -- -- 66
2019-11-15 23:00:00 7.9 6 Norte 14 Noroeste 0 -- -- 61
2019-11-15 22:00:00 7.8 0 Calma 16 Noroeste 0 -- -- 65
2019-11-15 21:00:00 8.4 10 Noroeste 14 Oeste 0 -- -- 61
2019-11-15 20:00:00 9.7 5 Oeste 12 Oeste 0 -- -- 56
2019-11-15 19:00:00 10.4 6 Noroeste 24 Oeste 0 -- -- 51
2019-11-15 18:00:00 12.5 14 Noroeste 28 Noroeste 0 -- -- 44
2019-11-15 17:00:00 13.2 20 Oeste 33 Oeste 0 -- -- 41
2019-11-15 16:00:00 14.2 16 Oeste 32 Noroeste 0 -- -- 40
2019-11-15 15:00:00 13.9 16 Oeste 31 Noroeste 0 -- -- 42
2019-11-15 14:00:00 14.8 14 Noroeste 49 Oeste 0 -- -- 40
2019-11-15 13:00:00 13.9 24 Noroeste 40 Noroeste 0 -- -- 41
2019-11-15 12:00:00 13 21 Noroeste 37 Oeste 0 -- -- 46
2019-11-15 11:00:00 12 13 Noroeste 31 Oeste 0 -- -- 50
2019-11-15 10:00:00 10.8 13 Oeste 27 Oeste 0 -- -- 56
2019-11-15 09:00:00 7.2 4 Sudeste 15 Noroeste 0 -- -- 69
2019-11-15 08:00:00 3.7 8 Noroeste 14 Noroeste 0 -- -- 84
2019-11-15 07:00:00 4.8 8 Noroeste 13 Oeste 0 -- -- 79
2019-11-15 06:00:00 6.2 10 Noroeste 17 Noroeste 0 -- -- 73
2019-11-15 05:00:00 6 10 Noroeste 19 Noroeste 0 -- -- 76
2019-11-15 04:00:00 7.6 14 Oeste 27 Oeste 0 -- -- 69
2019-11-15 03:00:00 7 5 Noroeste 32 Oeste 0 -- -- 70
2019-11-15 02:00:00 7.5 11 Noroeste 36 Oeste 0 -- -- 70
2019-11-15 01:00:00 7.6 18 Oeste 37 Oeste 0 -- -- 73
2019-11-15 00:00:00 7.7 20 Oeste 35 Oeste 0.2 -- -- 76